sensor_id;sensor_type;location;lat;lon;timestamp;pressure;altitude;pressure_sealevel;temperature;humidity
50933;BME280;36921;49.006;9.292;2023-07-16T00:02:01;98739.09;;;19.21;100.00
50933;BME280;36921;49.006;9.292;2023-07-16T00:04:27;98717.75;;;19.29;100.00
50933;BME280;36921;49.006;9.292;2023-07-16T00:06:52;98692.72;;;19.20;100.00
50933;BME280;36921;49.006;9.292;2023-07-16T00:09:17;98720.53;;;19.34;100.00
50933;BME280;36921;49.006;9.292;2023-07-16T00:11:43;98723.28;;;19.34;100.00
50933;BME280;36921;49.006;9.292;2023-07-16T00:14:10;98733.97;;;19.35;100.00
50933;BME280;36921;49.006;9.292;2023-07-16T00:16:36;98731.22;;;19.35;100.00
50933;BME280;36921;49.006;9.292;2023-07-16T00:19:01;98720.69;;;19.22;100.00
50933;BME280;36921;49.006;9.292;2023-07-16T00:21:26;98734.75;;;19.31;100.00
50933;BME280;36921;49.006;9.292;2023-07-16T00:23:51;98722.63;;;19.21;100.00
50933;BME280;36921;49.006;9.292;2023-07-16T00:26:17;98744.88;;;19.25;100.00
50933;BME280;36921;49.006;9.292;2023-07-16T00:28:42;98752.56;;;19.28;100.00
50933;BME280;36921;49.006;9.292;2023-07-16T00:31:07;98728.13;;;19.21;100.00
50933;BME280;36921;49.006;9.292;2023-07-16T00:33:32;98736.06;;;19.18;100.00
50933;BME280;36921;49.006;9.292;2023-07-16T00:35:58;98755.25;;;19.23;100.00
50933;BME280;36921;49.006;9.292;2023-07-16T00:38:23;98717.31;;;19.10;100.00
50933;BME280;36921;49.006;9.292;2023-07-16T00:40:48;98751.31;;;19.09;100.00
50933;BME280;36921;49.006;9.292;2023-07-16T00:43:14;98738.50;;;18.87;100.00
50933;BME280;36921;49.006;9.292;2023-07-16T00:45:40;98728.16;;;18.94;100.00
50933;BME280;36921;49.006;9.292;2023-07-16T00:48:07;98741.19;;;18.82;100.00
50933;BME280;36921;49.006;9.292;2023-07-16T00:50:34;98743.34;;;18.80;100.00
50933;BME280;36921;49.006;9.292;2023-07-16T00:53:08;98735.56;;;18.72;100.00
50933;BME280;36921;49.006;9.292;2023-07-16T00:55:33;98743.72;;;18.67;100.00
50933;BME280;36921;49.006;9.292;2023-07-16T00:58:01;98709.16;;;18.60;100.00
50933;BME280;36921;49.006;9.292;2023-07-16T01:00:35;98720.59;;;18.57;100.00
50933;BME280;36921;49.006;9.292;2023-07-16T01:03:05;98712.38;;;18.57;100.00
50933;BME280;36921;49.006;9.292;2023-07-16T01:08:28;98719.31;;;18.65;100.00
50933;BME280;36921;49.006;9.292;2023-07-16T01:10:55;98704.97;;;18.53;100.00
50933;BME280;36921;49.006;9.292;2023-07-16T01:13:20;98740.19;;;18.44;100.00
50933;BME280;36921;49.006;9.292;2023-07-16T01:15:46;98778.03;;;18.47;100.00
50933;BME280;36921;49.006;9.292;2023-07-16T01:18:11;98771.09;;;18.39;100.00
50933;BME280;36921;49.006;9.292;2023-07-16T01:20:37;98766.97;;;18.37;100.00
50933;BME280;36921;49.006;9.292;2023-07-16T01:23:26;98766.91;;;18.32;100.00
50933;BME280;36921;49.006;9.292;2023-07-16T01:26:05;98772.88;;;18.29;100.00
50933;BME280;36921;49.006;9.292;2023-07-16T01:31:21;98786.66;;;18.34;100.00
50933;BME280;36921;49.006;9.292;2023-07-16T01:33:48;98775.13;;;18.32;100.00
50933;BME280;36921;49.006;9.292;2023-07-16T01:36:14;98797.47;;;18.46;100.00
50933;BME280;36921;49.006;9.292;2023-07-16T01:38:41;98779.25;;;18.34;100.00
50933;BME280;36921;49.006;9.292;2023-07-16T01:41:07;98787.47;;;18.34;100.00
50933;BME280;36921;49.006;9.292;2023-07-16T01:43:32;98800.06;;;18.35;100.00
50933;BME280;36921;49.006;9.292;2023-07-16T01:45:57;98807.16;;;18.31;100.00
50933;BME280;36921;49.006;9.292;2023-07-16T01:48:31;98811.34;;;18.39;100.00
50933;BME280;36921;49.006;9.292;2023-07-16T01:50:57;98823.38;;;18.38;100.00
50933;BME280;36921;49.006;9.292;2023-07-16T01:53:22;98816.19;;;18.32;100.00
50933;BME280;36921;49.006;9.292;2023-07-16T01:55:48;98798.03;;;18.26;100.00
50933;BME280;36921;49.006;9.292;2023-07-16T01:58:13;98792.31;;;18.27;100.00
50933;BME280;36921;49.006;9.292;2023-07-16T02:00:39;98788.75;;;18.27;100.00
50933;BME280;36921;49.006;9.292;2023-07-16T02:03:05;98793.63;;;18.25;100.00
50933;BME280;36921;49.006;9.292;2023-07-16T02:05:30;98788.59;;;18.16;100.00
50933;BME280;36921;49.006;9.292;2023-07-16T02:07:55;98782.09;;;18.23;100.00
50933;BME280;36921;49.006;9.292;2023-07-16T02:10:21;98800.88;;;18.14;100.00
50933;BME280;36921;49.006;9.292;2023-07-16T02:12:46;98833.97;;;18.12;100.00
50933;BME280;36921;49.006;9.292;2023-07-16T02:15:11;98829.28;;;18.08;100.00
50933;BME280;36921;49.006;9.292;2023-07-16T02:17:37;98820.28;;;18.12;100.00
50933;BME280;36921;49.006;9.292;2023-07-16T02:20:02;98814.75;;;18.07;100.00
50933;BME280;36921;49.006;9.292;2023-07-16T02:22:30;98795.03;;;18.05;100.00
50933;BME280;36921;49.006;9.292;2023-07-16T02:24:56;98809.69;;;18.16;100.00
50933;BME280;36921;49.006;9.292;2023-07-16T02:27:21;98807.44;;;18.13;100.00
50933;BME280;36921;49.006;9.292;2023-07-16T02:29:46;98804.00;;;18.23;100.00
50933;BME280;36921;49.006;9.292;2023-07-16T02:32:11;98802.16;;;18.28;100.00
50933;BME280;36921;49.006;9.292;2023-07-16T02:34:37;98794.72;;;18.24;100.00
50933;BME280;36921;49.006;9.292;2023-07-16T02:37:02;98757.78;;;18.26;100.00
50933;BME280;36921;49.006;9.292;2023-07-16T02:39:28;98765.63;;;18.39;100.00
50933;BME280;36921;49.006;9.292;2023-07-16T02:41:53;98761.16;;;18.33;100.00
50933;BME280;36921;49.006;9.292;2023-07-16T02:44:18;98777.28;;;18.30;100.00
50933;BME280;36921;49.006;9.292;2023-07-16T02:46:44;98761.47;;;18.37;100.00
50933;BME280;36921;49.006;9.292;2023-07-16T02:49:09;98771.41;;;18.43;100.00
50933;BME280;36921;49.006;9.292;2023-07-16T02:51:34;98770.59;;;18.43;100.00
50933;BME280;36921;49.006;9.292;2023-07-16T02:54:00;98780.50;;;18.49;100.00
50933;BME280;36921;49.006;9.292;2023-07-16T02:56:25;98781.34;;;18.49;100.00
50933;BME280;36921;49.006;9.292;2023-07-16T02:58:50;98770.38;;;18.49;100.00
50933;BME280;36921;49.006;9.292;2023-07-16T03:01:16;98760.56;;;18.53;100.00
50933;BME280;36921;49.006;9.292;2023-07-16T03:03:41;98752.28;;;18.48;100.00
50933;BME280;36921;49.006;9.292;2023-07-16T03:06:06;98736.84;;;18.37;100.00
50933;BME280;36921;49.006;9.292;2023-07-16T03:08:33;98726.31;;;18.29;100.00
50933;BME280;36921;49.006;9.292;2023-07-16T03:10:59;98741.38;;;18.26;100.00
50933;BME280;36921;49.006;9.292;2023-07-16T03:13:24;98715.56;;;18.22;100.00
50933;BME280;36921;49.006;9.292;2023-07-16T03:15:49;98704.53;;;18.17;100.00
50933;BME280;36921;49.006;9.292;2023-07-16T03:18:17;98720.97;;;18.17;100.00
50933;BME280;36921;49.006;9.292;2023-07-16T03:20:42;98717.28;;;18.06;100.00
50933;BME280;36921;49.006;9.292;2023-07-16T03:23:08;98761.00;;;18.23;100.00
50933;BME280;36921;49.006;9.292;2023-07-16T03:25:33;98740.69;;;17.97;100.00
50933;BME280;36921;49.006;9.292;2023-07-16T03:27:58;98739.53;;;17.93;100.00
50933;BME280;36921;49.006;9.292;2023-07-16T03:30:23;98761.66;;;18.08;100.00
50933;BME280;36921;49.006;9.292;2023-07-16T03:32:49;98753.38;;;18.03;100.00
50933;BME280;36921;49.006;9.292;2023-07-16T03:35:14;98757.38;;;17.95;100.00
50933;BME280;36921;49.006;9.292;2023-07-16T03:37:39;98781.00;;;18.02;100.00
50933;BME280;36921;49.006;9.292;2023-07-16T03:40:15;98787.06;;;18.04;100.00
50933;BME280;36921;49.006;9.292;2023-07-16T03:42:42;98788.00;;;17.92;100.00
50933;BME280;36921;49.006;9.292;2023-07-16T03:45:08;98770.59;;;17.82;100.00
50933;BME280;36921;49.006;9.292;2023-07-16T03:47:33;98792.56;;;17.87;100.00
50933;BME280;36921;49.006;9.292;2023-07-16T03:49:58;98795.22;;;17.82;100.00
50933;BME280;36921;49.006;9.292;2023-07-16T03:52:24;98793.31;;;17.82;100.00
50933;BME280;36921;49.006;9.292;2023-07-16T03:54:50;98787.38;;;17.73;100.00
50933;BME280;36921;49.006;9.292;2023-07-16T03:57:16;98801.09;;;17.90;100.00
50933;BME280;36921;49.006;9.292;2023-07-16T03:59:42;98820.91;;;17.98;100.00
50933;BME280;36921;49.006;9.292;2023-07-16T04:02:07;98798.59;;;17.89;100.00
50933;BME280;36921;49.006;9.292;2023-07-16T04:04:32;98816.00;;;18.00;100.00
50933;BME280;36921;49.006;9.292;2023-07-16T04:06:57;98831.00;;;17.97;100.00
50933;BME280;36921;49.006;9.292;2023-07-16T04:09:23;98849.13;;;17.98;100.00
50933;BME280;36921;49.006;9.292;2023-07-16T04:11:48;98855.66;;;17.97;100.00
50933;BME280;36921;49.006;9.292;2023-07-16T04:14:14;98848.38;;;17.86;100.00
50933;BME280;36921;49.006;9.292;2023-07-16T04:16:39;98859.66;;;17.89;100.00
50933;BME280;36921;49.006;9.292;2023-07-16T04:19:04;98845.91;;;17.84;100.00
50933;BME280;36921;49.006;9.292;2023-07-16T04:21:30;98843.72;;;17.86;100.00
50933;BME280;36921;49.006;9.292;2023-07-16T04:23:55;98860.31;;;17.96;100.00
50933;BME280;36921;49.006;9.292;2023-07-16T04:26:20;98854.59;;;17.98;100.00
50933;BME280;36921;49.006;9.292;2023-07-16T04:28:46;98855.50;;;18.04;100.00
50933;BME280;36921;49.006;9.292;2023-07-16T04:31:11;98858.00;;;18.05;100.00
50933;BME280;36921;49.006;9.292;2023-07-16T04:33:36;98846.19;;;18.05;100.00
50933;BME280;36921;49.006;9.292;2023-07-16T04:36:01;98823.53;;;18.09;100.00
50933;BME280;36921;49.006;9.292;2023-07-16T04:38:27;98835.81;;;18.07;100.00
50933;BME280;36921;49.006;9.292;2023-07-16T04:40:52;98840.78;;;18.10;100.00
50933;BME280;36921;49.006;9.292;2023-07-16T04:43:17;98836.84;;;18.01;100.00
50933;BME280;36921;49.006;9.292;2023-07-16T04:45:44;98842.63;;;18.04;100.00
50933;BME280;36921;49.006;9.292;2023-07-16T04:48:12;98831.00;;;17.97;100.00
50933;BME280;36921;49.006;9.292;2023-07-16T04:50:38;98835.59;;;17.91;100.00
50933;BME280;36921;49.006;9.292;2023-07-16T04:53:03;98844.22;;;18.00;100.00
50933;BME280;36921;49.006;9.292;2023-07-16T04:55:29;98863.94;;;18.02;100.00
50933;BME280;36921;49.006;9.292;2023-07-16T04:57:54;98840.56;;;17.94;100.00
50933;BME280;36921;49.006;9.292;2023-07-16T05:00:19;98848.72;;;17.89;100.00
50933;BME280;36921;49.006;9.292;2023-07-16T05:02:45;98869.50;;;18.07;100.00
50933;BME280;36921;49.006;9.292;2023-07-16T05:05:10;98865.34;;;18.22;100.00
50933;BME280;36921;49.006;9.292;2023-07-16T05:07:36;98877.34;;;18.37;100.00
50933;BME280;36921;49.006;9.292;2023-07-16T05:10:01;98854.47;;;18.27;100.00
50933;BME280;36921;49.006;9.292;2023-07-16T05:12:26;98834.72;;;18.25;100.00
50933;BME280;36921;49.006;9.292;2023-07-16T05:14:52;98845.34;;;18.21;100.00
50933;BME280;36921;49.006;9.292;2023-07-16T05:17:17;98873.13;;;18.30;100.00
50933;BME280;36921;49.006;9.292;2023-07-16T05:19:42;98826.88;;;18.11;100.00
50933;BME280;36921;49.006;9.292;2023-07-16T05:22:07;98870.06;;;18.26;100.00
50933;BME280;36921;49.006;9.292;2023-07-16T05:24:33;98884.31;;;18.45;100.00
50933;BME280;36921;49.006;9.292;2023-07-16T05:26:59;98878.63;;;18.52;100.00
50933;BME280;36921;49.006;9.292;2023-07-16T05:29:24;98888.59;;;18.58;100.00
50933;BME280;36921;49.006;9.292;2023-07-16T05:31:49;98887.34;;;18.66;100.00
50933;BME280;36921;49.006;9.292;2023-07-16T05:34:15;98880.00;;;18.71;100.00
50933;BME280;36921;49.006;9.292;2023-07-16T05:36:42;98880.00;;;18.93;100.00
50933;BME280;36921;49.006;9.292;2023-07-16T05:39:07;98870.09;;;18.87;100.00
50933;BME280;36921;49.006;9.292;2023-07-16T05:41:33;98879.19;;;18.93;100.00
50933;BME280;36921;49.006;9.292;2023-07-16T05:43:59;98866.88;;;18.95;100.00
50933;BME280;36921;49.006;9.292;2023-07-16T05:46:24;98869.16;;;19.03;100.00
50933;BME280;36921;49.006;9.292;2023-07-16T05:48:49;98883.41;;;19.27;100.00
50933;BME280;36921;49.006;9.292;2023-07-16T05:51:14;98863.28;;;19.17;100.00
50933;BME280;36921;49.006;9.292;2023-07-16T05:53:40;98875.63;;;19.41;100.00
50933;BME280;36921;49.006;9.292;2023-07-16T05:56:05;98891.66;;;19.55;100.00
50933;BME280;36921;49.006;9.292;2023-07-16T05:58:30;98887.84;;;19.88;100.00
50933;BME280;36921;49.006;9.292;2023-07-16T06:00:56;98878.06;;;20.40;100.00
50933;BME280;36921;49.006;9.292;2023-07-16T06:03:21;98881.53;;;20.62;100.00
50933;BME280;36921;49.006;9.292;2023-07-16T06:05:46;98885.38;;;20.66;100.00
50933;BME280;36921;49.006;9.292;2023-07-16T06:08:11;98891.53;;;20.84;100.00
50933;BME280;36921;49.006;9.292;2023-07-16T06:10:37;98892.03;;;20.75;100.00
50933;BME280;36921;49.006;9.292;2023-07-16T06:13:03;98884.31;;;20.77;100.00
50933;BME280;36921;49.006;9.292;2023-07-16T06:15:29;98876.06;;;20.77;100.00
50933;BME280;36921;49.006;9.292;2023-07-16T06:17:54;98870.78;;;20.61;100.00
50933;BME280;36921;49.006;9.292;2023-07-16T06:20:19;98863.44;;;20.76;100.00
50933;BME280;36921;49.006;9.292;2023-07-16T06:22:45;98878.94;;;21.03;100.00
50933;BME280;36921;49.006;9.292;2023-07-16T06:25:10;98888.78;;;20.41;100.00
50933;BME280;36921;49.006;9.292;2023-07-16T06:27:36;98887.47;;;20.49;100.00
50933;BME280;36921;49.006;9.292;2023-07-16T06:30:01;98893.69;;;20.34;100.00
50933;BME280;36921;49.006;9.292;2023-07-16T06:32:26;98883.31;;;20.04;100.00
50933;BME280;36921;49.006;9.292;2023-07-16T06:34:52;98910.28;;;20.12;100.00
50933;BME280;36921;49.006;9.292;2023-07-16T06:37:17;98902.34;;;20.16;100.00
50933;BME280;36921;49.006;9.292;2023-07-16T06:39:42;98904.78;;;20.07;100.00
50933;BME280;36921;49.006;9.292;2023-07-16T06:42:07;98897.03;;;20.41;100.00
50933;BME280;36921;49.006;9.292;2023-07-16T06:44:33;98887.06;;;20.67;100.00
50933;BME280;36921;49.006;9.292;2023-07-16T06:46:58;98896.44;;;20.82;100.00
50933;BME280;36921;49.006;9.292;2023-07-16T06:49:23;98899.88;;;21.09;100.00
50933;BME280;36921;49.006;9.292;2023-07-16T06:51:49;98891.16;;;21.43;100.00
50933;BME280;36921;49.006;9.292;2023-07-16T06:54:14;98891.78;;;22.17;100.00
50933;BME280;36921;49.006;9.292;2023-07-16T06:56:40;98885.69;;;21.58;100.00
50933;BME280;36921;49.006;9.292;2023-07-16T06:59:06;98880.22;;;21.84;100.00
50933;BME280;36921;49.006;9.292;2023-07-16T07:01:32;98876.31;;;22.16;100.00
50933;BME280;36921;49.006;9.292;2023-07-16T07:03:57;98872.69;;;22.61;100.00
50933;BME280;36921;49.006;9.292;2023-07-16T07:06:22;98878.63;;;22.99;100.00
50933;BME280;36921;49.006;9.292;2023-07-16T07:08:47;98868.66;;;23.13;100.00
50933;BME280;36921;49.006;9.292;2023-07-16T07:11:13;98886.53;;;27.08;100.00
50933;BME280;36921;49.006;9.292;2023-07-16T07:13:48;98874.78;;;25.57;100.00
50933;BME280;36921;49.006;9.292;2023-07-16T07:16:16;98881.38;;;24.22;100.00
50933;BME280;36921;49.006;9.292;2023-07-16T07:18:42;98897.78;;;23.79;100.00
50933;BME280;36921;49.006;9.292;2023-07-16T07:21:09;98901.81;;;22.93;100.00
50933;BME280;36921;49.006;9.292;2023-07-16T07:23:34;98893.03;;;22.81;100.00
50933;BME280;36921;49.006;9.292;2023-07-16T07:25:59;98888.00;;;25.98;100.00
50933;BME280;36921;49.006;9.292;2023-07-16T07:28:25;98880.69;;;27.96;nan
50933;BME280;36921;49.006;9.292;2023-07-16T07:30:50;98869.91;;;30.53;71.42
50933;BME280;36921;49.006;9.292;2023-07-16T07:33:16;98894.19;;;33.05;59.75
50933;BME280;36921;49.006;9.292;2023-07-16T07:35:41;98888.78;;;33.89;53.31
50933;BME280;36921;49.006;9.292;2023-07-16T07:38:06;98878.72;;;34.92;50.46
50933;BME280;36921;49.006;9.292;2023-07-16T07:40:31;98887.09;;;35.75;46.92
50933;BME280;36921;49.006;9.292;2023-07-16T07:42:57;98889.78;;;35.52;46.78
50933;BME280;36921;49.006;9.292;2023-07-16T07:45:23;98900.13;;;32.79;51.25
50933;BME280;36921;49.006;9.292;2023-07-16T07:47:49;98892.13;;;32.11;50.09
50933;BME280;36921;49.006;9.292;2023-07-16T07:50:14;98885.72;;;30.88;53.92
50933;BME280;36921;49.006;9.292;2023-07-16T07:52:40;98910.59;;;29.15;61.91
50933;BME280;36921;49.006;9.292;2023-07-16T07:55:06;98911.63;;;27.81;69.49
50933;BME280;36921;49.006;9.292;2023-07-16T07:57:31;98900.84;;;27.01;73.90
50933;BME280;36921;49.006;9.292;2023-07-16T07:59:57;98895.16;;;29.66;63.32
50933;BME280;36921;49.006;9.292;2023-07-16T08:02:24;98902.50;;;30.32;61.83
50933;BME280;36921;49.006;9.292;2023-07-16T08:04:55;98910.63;;;32.03;59.40
50933;BME280;36921;49.006;9.292;2023-07-16T08:07:22;98895.22;;;32.42;51.26
50933;BME280;36921;49.006;9.292;2023-07-16T08:09:47;98910.38;;;33.73;49.77
50933;BME280;36921;49.006;9.292;2023-07-16T08:12:14;98905.94;;;34.28;47.11
50933;BME280;36921;49.006;9.292;2023-07-16T08:14:39;98910.41;;;31.66;49.52
50933;BME280;36921;49.006;9.292;2023-07-16T08:17:06;98912.03;;;29.70;54.68
50933;BME280;36921;49.006;9.292;2023-07-16T08:19:32;98919.66;;;28.90;58.43
50933;BME280;36921;49.006;9.292;2023-07-16T08:21:57;98917.41;;;28.60;61.66
50933;BME280;36921;49.006;9.292;2023-07-16T08:24:22;98910.00;;;29.36;59.73
50933;BME280;36921;49.006;9.292;2023-07-16T08:26:49;98906.25;;;29.49;56.96
50933;BME280;36921;49.006;9.292;2023-07-16T08:29:14;98910.72;;;30.84;52.78
50933;BME280;36921;49.006;9.292;2023-07-16T08:31:40;98904.69;;;31.33;53.99
50933;BME280;36921;49.006;9.292;2023-07-16T08:34:05;98913.63;;;28.88;56.74
50933;BME280;36921;49.006;9.292;2023-07-16T08:36:33;98907.66;;;27.59;61.42
50933;BME280;36921;49.006;9.292;2023-07-16T08:38:58;98920.56;;;29.08;61.99
50933;BME280;36921;49.006;9.292;2023-07-16T08:41:23;98894.38;;;31.25;55.56
50933;BME280;36921;49.006;9.292;2023-07-16T08:43:49;98884.38;;;35.98;46.56
50933;BME280;36921;49.006;9.292;2023-07-16T08:46:15;98888.22;;;37.78;41.35
50933;BME280;36921;49.006;9.292;2023-07-16T08:48:41;98892.00;;;35.97;42.34
50933;BME280;36921;49.006;9.292;2023-07-16T08:51:09;98908.03;;;31.77;46.37
50933;BME280;36921;49.006;9.292;2023-07-16T08:53:35;98902.81;;;31.87;49.64
50933;BME280;36921;49.006;9.292;2023-07-16T08:56:00;98909.50;;;30.47;52.22
50933;BME280;36921;49.006;9.292;2023-07-16T08:58:27;98897.56;;;29.51;55.93
50933;BME280;36921;49.006;9.292;2023-07-16T09:00:55;98899.72;;;28.34;58.82
50933;BME280;36921;49.006;9.292;2023-07-16T09:03:21;98902.19;;;27.18;62.11
50933;BME280;36921;49.006;9.292;2023-07-16T09:05:46;98905.66;;;26.82;68.48
50933;BME280;36921;49.006;9.292;2023-07-16T09:08:13;98912.84;;;26.69;66.70
50933;BME280;36921;49.006;9.292;2023-07-16T09:10:42;98916.47;;;26.97;66.32
50933;BME280;36921;49.006;9.292;2023-07-16T09:13:07;98912.94;;;26.17;72.22
50933;BME280;36921;49.006;9.292;2023-07-16T09:15:33;98930.56;;;26.73;68.36
50933;BME280;36921;49.006;9.292;2023-07-16T09:17:59;98930.16;;;27.07;66.81
50933;BME280;36921;49.006;9.292;2023-07-16T09:20:25;98914.72;;;28.78;66.26
50933;BME280;36921;49.006;9.292;2023-07-16T09:22:54;98917.03;;;31.02;55.42
50933;BME280;36921;49.006;9.292;2023-07-16T09:25:29;98914.97;;;33.04;52.43
50933;BME280;36921;49.006;9.292;2023-07-16T09:27:58;98920.19;;;31.00;53.68
50933;BME280;36921;49.006;9.292;2023-07-16T09:30:31;98909.84;;;31.22;54.04
50933;BME280;36921;49.006;9.292;2023-07-16T09:32:56;98926.41;;;29.55;55.90
50933;BME280;36921;49.006;9.292;2023-07-16T09:35:22;98915.81;;;30.00;56.39
50933;BME280;36921;49.006;9.292;2023-07-16T09:37:47;98906.88;;;32.32;51.96
50933;BME280;36921;49.006;9.292;2023-07-16T09:40:13;98908.88;;;33.38;48.17
50933;BME280;36921;49.006;9.292;2023-07-16T09:42:42;98912.34;;;33.72;47.06
50933;BME280;36921;49.006;9.292;2023-07-16T09:45:18;98909.94;;;32.39;49.39
50933;BME280;36921;49.006;9.292;2023-07-16T09:47:44;98907.41;;;31.20;50.05
50933;BME280;36921;49.006;9.292;2023-07-16T09:50:10;98921.84;;;29.59;53.37
50933;BME280;36921;49.006;9.292;2023-07-16T09:52:37;98906.28;;;32.72;49.23
50933;BME280;36921;49.006;9.292;2023-07-16T09:55:03;98900.50;;;33.79;46.07
50933;BME280;36921;49.006;9.292;2023-07-16T09:57:34;98906.72;;;32.62;47.67
50933;BME280;36921;49.006;9.292;2023-07-16T10:00:02;98895.88;;;31.73;50.52
50933;BME280;36921;49.006;9.292;2023-07-16T10:02:33;98906.00;;;32.19;48.62
50933;BME280;36921;49.006;9.292;2023-07-16T10:04:58;98908.16;;;32.68;49.02
50933;BME280;36921;49.006;9.292;2023-07-16T10:07:25;98903.84;;;32.70;48.85
50933;BME280;36921;49.006;9.292;2023-07-16T10:09:56;98891.13;;;33.22;48.07
50933;BME280;36921;49.006;9.292;2023-07-16T10:12:26;98909.75;;;33.79;46.64
50933;BME280;36921;49.006;9.292;2023-07-16T10:14:55;98897.69;;;36.20;43.77
50933;BME280;36921;49.006;9.292;2023-07-16T10:17:26;98906.25;;;37.66;40.30
50933;BME280;36921;49.006;9.292;2023-07-16T10:22:18;98888.34;;;39.49;36.86
50933;BME280;36921;49.006;9.292;2023-07-16T10:24:51;98898.19;;;37.41;37.28
50933;BME280;36921;49.006;9.292;2023-07-16T10:27:26;98899.34;;;39.09;36.82
50933;BME280;36921;49.006;9.292;2023-07-16T10:29:52;98911.38;;;39.51;36.16
50933;BME280;36921;49.006;9.292;2023-07-16T10:32:19;98910.88;;;40.04;35.38
50933;BME280;36921;49.006;9.292;2023-07-16T10:34:46;98894.06;;;40.83;33.96
50933;BME280;36921;49.006;9.292;2023-07-16T10:37:11;98896.03;;;41.50;33.69
50933;BME280;36921;49.006;9.292;2023-07-16T10:39:46;98908.53;;;39.43;34.66
50933;BME280;36921;49.006;9.292;2023-07-16T10:42:13;98886.16;;;40.08;33.88
50933;BME280;36921;49.006;9.292;2023-07-16T10:44:39;98886.25;;;41.73;34.14
50933;BME280;36921;49.006;9.292;2023-07-16T10:47:05;98876.50;;;43.86;30.86
50933;BME280;36921;49.006;9.292;2023-07-16T10:49:31;98878.09;;;43.11;30.40
50933;BME280;36921;49.006;9.292;2023-07-16T10:51:59;98878.03;;;43.15;30.82
50933;BME280;36921;49.006;9.292;2023-07-16T10:54:25;98875.44;;;42.27;31.66
50933;BME280;36921;49.006;9.292;2023-07-16T10:56:51;98874.03;;;40.11;33.67
50933;BME280;36921;49.006;9.292;2023-07-16T10:59:16;98872.09;;;38.08;36.25
50933;BME280;36921;49.006;9.292;2023-07-16T11:01:43;98879.13;;;38.63;35.50
50933;BME280;36921;49.006;9.292;2023-07-16T11:04:08;98864.88;;;39.55;34.13
50933;BME280;36921;49.006;9.292;2023-07-16T11:06:33;98868.44;;;40.40;32.81
50933;BME280;36921;49.006;9.292;2023-07-16T11:09:09;98865.25;;;42.37;31.62
50933;BME280;36921;49.006;9.292;2023-07-16T11:11:35;98852.06;;;39.10;32.54
50933;BME280;36921;49.006;9.292;2023-07-16T11:14:04;98867.66;;;40.50;33.38
50933;BME280;36921;49.006;9.292;2023-07-16T11:16:33;98865.66;;;40.54;32.68
50933;BME280;36921;49.006;9.292;2023-07-16T11:19:01;98852.66;;;42.38;32.15
50933;BME280;36921;49.006;9.292;2023-07-16T11:21:27;98853.84;;;38.80;32.88
50933;BME280;36921;49.006;9.292;2023-07-16T11:23:52;98860.06;;;37.24;36.93
50933;BME280;36921;49.006;9.292;2023-07-16T11:26:18;98867.00;;;35.57;37.85
50933;BME280;36921;49.006;9.292;2023-07-16T11:28:43;98864.38;;;32.63;41.32
50933;BME280;36921;49.006;9.292;2023-07-16T11:31:16;98869.56;;;31.53;43.77
50933;BME280;36921;49.006;9.292;2023-07-16T11:33:45;98861.53;;;35.29;40.60
50933;BME280;36921;49.006;9.292;2023-07-16T11:36:11;98852.16;;;38.31;36.59
50933;BME280;36921;49.006;9.292;2023-07-16T11:38:37;98840.41;;;40.02;34.65
50933;BME280;36921;49.006;9.292;2023-07-16T11:41:03;98854.34;;;37.78;35.20
50933;BME280;36921;49.006;9.292;2023-07-16T11:43:34;98853.59;;;39.62;33.83
50933;BME280;36921;49.006;9.292;2023-07-16T11:45:59;98855.09;;;36.91;35.33
50933;BME280;36921;49.006;9.292;2023-07-16T11:48:25;98839.94;;;38.61;35.36
50933;BME280;36921;49.006;9.292;2023-07-16T11:50:50;98838.59;;;38.89;34.63
50933;BME280;36921;49.006;9.292;2023-07-16T11:53:16;98834.44;;;40.58;33.03
50933;BME280;36921;49.006;9.292;2023-07-16T11:55:41;98851.00;;;41.56;31.26
50933;BME280;36921;49.006;9.292;2023-07-16T11:58:07;98845.47;;;38.47;33.82
50933;BME280;36921;49.006;9.292;2023-07-16T12:00:32;98839.09;;;39.09;34.11
50933;BME280;36921;49.006;9.292;2023-07-16T12:02:57;98825.06;;;38.30;35.08
50933;BME280;36921;49.006;9.292;2023-07-16T12:05:23;98830.94;;;39.66;33.42
50933;BME280;36921;49.006;9.292;2023-07-16T12:07:53;98821.47;;;40.60;31.93
50933;BME280;36921;49.006;9.292;2023-07-16T12:10:18;98828.38;;;41.16;31.59
50933;BME280;36921;49.006;9.292;2023-07-16T12:12:44;98815.72;;;41.53;30.61
50933;BME280;36921;49.006;9.292;2023-07-16T12:15:09;98813.03;;;39.33;32.35
50933;BME280;36921;49.006;9.292;2023-07-16T12:17:35;98821.50;;;37.36;34.39
50933;BME280;36921;49.006;9.292;2023-07-16T12:20:01;98814.47;;;35.26;36.36
50933;BME280;36921;49.006;9.292;2023-07-16T12:22:27;98800.72;;;39.11;34.63
50933;BME280;36921;49.006;9.292;2023-07-16T12:24:52;98803.66;;;40.42;32.91
50933;BME280;36921;49.006;9.292;2023-07-16T12:27:18;98798.56;;;37.67;33.58
50933;BME280;36921;49.006;9.292;2023-07-16T12:29:44;98795.44;;;34.68;36.94
50933;BME280;36921;49.006;9.292;2023-07-16T12:32:09;98791.97;;;37.56;35.77
50933;BME280;36921;49.006;9.292;2023-07-16T12:34:35;98796.75;;;39.23;33.09
50933;BME280;36921;49.006;9.292;2023-07-16T12:37:00;98789.47;;;40.27;32.54
50933;BME280;36921;49.006;9.292;2023-07-16T12:39:25;98785.81;;;40.95;31.27
50933;BME280;36921;49.006;9.292;2023-07-16T12:41:51;98786.03;;;41.65;31.45
50933;BME280;36921;49.006;9.292;2023-07-16T12:44:16;98787.91;;;42.00;32.03
50933;BME280;36921;49.006;9.292;2023-07-16T12:46:41;98775.31;;;42.54;30.18
50933;BME280;36921;49.006;9.292;2023-07-16T12:49:06;98787.84;;;40.37;30.79
50933;BME280;36921;49.006;9.292;2023-07-16T12:51:32;98790.50;;;38.92;32.32
50933;BME280;36921;49.006;9.292;2023-07-16T12:53:57;98785.13;;;37.57;34.50
50933;BME280;36921;49.006;9.292;2023-07-16T12:56:22;98780.78;;;39.63;33.83
50933;BME280;36921;49.006;9.292;2023-07-16T12:58:48;98772.47;;;40.49;33.18